createdAt,value
2018-03-15T00:01:00.184Z,43.53
2018-03-15T00:01:39.166Z,44.38
2018-03-15T00:03:00.157Z,44.29
2018-03-15T00:03:39.140Z,44.20
2018-03-15T00:04:39.129Z,44.67
2018-03-15T00:06:00.112Z,44.67
2018-03-15T00:06:39.090Z,45.33
2018-03-15T00:08:00.088Z,44.67
2018-03-15T00:08:39.065Z,44.95
2018-03-15T00:09:39.052Z,44.76
2018-03-15T00:11:00.042Z,44.76
2018-03-15T00:11:39.028Z,44.29
2018-03-15T00:13:00.010Z,44.01
2018-03-15T00:13:38.997Z,44.01
2018-03-15T00:14:38.987Z,44.20
2018-03-15T00:15:59.971Z,44.01
2018-03-15T00:16:38.959Z,44.38
2018-03-15T00:17:59.942Z,44.01
2018-03-15T00:18:38.928Z,44.20
2018-03-15T00:19:38.911Z,44.20
2018-03-15T00:20:59.901Z,43.98
2018-03-15T00:21:38.885Z,44.36
2018-03-15T00:22:59.887Z,44.27
2018-03-15T00:23:38.855Z,43.98
2018-03-15T00:24:38.848Z,44.36
2018-03-15T00:25:59.841Z,44.74
2018-03-15T00:26:38.813Z,45.21
2018-03-15T00:27:59.809Z,45.69
2018-03-15T00:28:38.787Z,46.07
2018-03-15T00:29:38.777Z,46.35
2018-03-15T00:30:59.766Z,46.35
2018-03-15T00:31:38.738Z,46.54
2018-03-15T00:32:59.730Z,46.83
2018-03-15T00:33:38.714Z,46.92
2018-03-15T00:34:38.700Z,47.11
2018-03-15T00:35:59.690Z,47.02
2018-03-15T00:36:38.668Z,46.54
2018-03-15T00:37:59.665Z,46.45
2018-03-15T00:38:38.645Z,45.31
2018-03-15T00:39:38.644Z,44.93
2018-03-15T00:40:59.619Z,45.31
2018-03-15T00:41:38.599Z,46.45
2018-03-15T00:42:59.591Z,45.21
2018-03-15T00:43:38.572Z,44.74
2018-03-15T00:44:38.557Z,43.70
2018-03-15T00:45:59.544Z,43.70
2018-03-15T00:46:38.530Z,43.60
2018-03-15T00:47:59.523Z,43.60
2018-03-15T00:48:38.502Z,44.08
2018-03-15T00:49:38.495Z,44.36
2018-03-15T00:50:59.474Z,44.17
2018-03-15T00:51:38.458Z,44.36
2018-03-15T00:52:59.447Z,44.93
2018-03-15T00:53:38.431Z,44.93
2018-03-15T00:54:38.423Z,43.98
2018-03-15T00:55:59.411Z,44.27
2018-03-15T00:56:38.391Z,44.36
2018-03-15T00:57:59.381Z,44.46
2018-03-15T00:58:38.364Z,44.36
2018-03-15T00:59:38.351Z,44.17
2018-03-15T01:00:59.337Z,44.36
2018-03-15T01:01:38.313Z,44.55
2018-03-15T01:02:59.302Z,43.60
2018-03-15T01:03:38.286Z,43.88
2018-03-15T01:04:38.276Z,44.08
2018-03-15T01:05:59.262Z,44.08
2018-03-15T01:06:38.248Z,45.03
2018-03-15T01:07:59.236Z,46.07
2018-03-15T01:08:38.218Z,45.88
2018-03-15T01:09:38.207Z,45.88
2018-03-15T01:10:59.194Z,46.45
2018-03-15T01:11:38.175Z,45.88
2018-03-15T01:12:59.161Z,46.16
2018-03-15T01:13:38.147Z,46.07
2018-03-15T01:14:38.134Z,45.88
2018-03-15T01:15:59.129Z,45.97
2018-03-15T01:16:38.108Z,46.07
2018-03-15T01:17:59.090Z,45.88
2018-03-15T01:18:38.070Z,46.16
2018-03-15T01:19:38.056Z,45.88
2018-03-15T01:20:59.051Z,45.97
2018-03-15T01:21:38.028Z,46.26
2018-03-15T01:22:59.029Z,45.78
2018-03-15T01:23:38.002Z,44.74
2018-03-15T01:24:37.984Z,45.03
2018-03-15T01:25:58.981Z,44.93
2018-03-15T01:26:37.965Z,45.12
2018-03-15T01:27:58.951Z,45.88
2018-03-15T01:28:37.934Z,46.45
2018-03-15T01:29:37.917Z,45.88
2018-03-15T01:30:58.910Z,45.12
2018-03-15T01:31:37.892Z,44.93
2018-03-15T01:32:58.894Z,44.84
2018-03-15T01:33:37.866Z,44.84
2018-03-15T01:34:37.844Z,43.98
2018-03-15T01:35:58.841Z,44.08
2018-03-15T01:36:37.817Z,44.55
2018-03-15T01:37:58.802Z,44.65
2018-03-15T01:38:37.793Z,45.50
2018-03-15T01:39:37.776Z,46.16
2018-03-15T01:40:58.764Z,45.69
2018-03-15T01:41:37.749Z,44.93
2018-03-15T01:42:58.742Z,44.93
2018-03-15T01:43:37.719Z,44.65
2018-03-15T01:44:37.707Z,44.08
2018-03-15T01:45:58.695Z,43.79
2018-03-15T01:46:37.679Z,43.41
2018-03-15T01:47:58.665Z,43.88
2018-03-15T01:48:37.649Z,44.17
2018-03-15T01:49:37.633Z,45.03
2018-03-15T01:50:58.622Z,44.93
2018-03-15T01:51:37.602Z,44.84
2018-03-15T01:52:58.590Z,45.59
2018-03-15T01:53:37.572Z,45.50
2018-03-15T01:54:37.559Z,44.93
2018-03-15T01:55:58.548Z,45.40
2018-03-15T01:56:37.528Z,45.12
2018-03-15T01:57:58.527Z,44.84
2018-03-15T01:58:37.504Z,45.31
2018-03-15T01:59:37.493Z,45.31
2018-03-15T02:00:58.481Z,45.12
2018-03-15T02:01:37.463Z,45.31
2018-03-15T02:02:58.457Z,45.31
2018-03-15T02:03:37.435Z,45.40
2018-03-15T02:04:37.415Z,46.16
2018-03-15T02:05:58.410Z,47.20
2018-03-15T02:06:37.389Z,47.39
2018-03-15T02:07:58.379Z,47.58
2018-03-15T02:08:37.359Z,47.49
2018-03-15T02:09:37.348Z,46.26
2018-03-15T02:10:58.345Z,46.26
2018-03-15T02:11:37.321Z,46.45
2018-03-15T02:12:58.307Z,46.73
2018-03-15T02:13:37.293Z,46.07
2018-03-15T02:14:37.275Z,45.97
2018-03-15T02:15:58.269Z,45.21
2018-03-15T02:16:37.247Z,44.74
2018-03-15T02:17:58.237Z,43.98
2018-03-15T02:18:37.215Z,43.98
2018-03-15T02:19:37.202Z,44.17
2018-03-15T02:20:58.194Z,45.03
2018-03-15T02:21:37.178Z,44.74
2018-03-15T02:22:58.170Z,44.74
2018-03-15T02:23:37.148Z,44.84
2018-03-15T02:24:37.132Z,44.93
2018-03-15T02:25:58.124Z,44.65
2018-03-15T02:26:37.106Z,44.08
2018-03-15T02:27:58.094Z,44.08
2018-03-15T02:28:37.078Z,43.51
2018-03-15T02:29:37.061Z,43.51
2018-03-15T02:30:58.051Z,43.60
2018-03-15T02:31:37.031Z,43.79
2018-03-15T02:32:58.032Z,44.08
2018-03-15T02:33:37.001Z,44.55
2018-03-15T02:34:36.991Z,44.65
2018-03-15T02:35:57.976Z,44.74
2018-03-15T02:36:36.963Z,44.08
2018-03-15T02:37:57.948Z,43.98
2018-03-15T02:38:36.934Z,44.17
2018-03-15T02:39:36.916Z,44.36
2018-03-15T02:40:57.912Z,44.65
2018-03-15T02:41:36.898Z,45.21
2018-03-15T02:42:57.880Z,44.74
2018-03-15T02:43:36.863Z,44.93
2018-03-15T02:44:36.844Z,44.55
2018-03-15T02:45:57.893Z,43.88
2018-03-15T02:46:36.821Z,43.88
2018-03-15T02:47:57.807Z,44.08
2018-03-15T02:48:36.787Z,43.98
2018-03-15T02:49:36.776Z,44.08
2018-03-15T02:50:57.767Z,44.84
2018-03-15T02:51:36.744Z,44.93
2018-03-15T02:52:57.740Z,45.03
2018-03-15T02:53:36.717Z,45.40
2018-03-15T02:54:36.702Z,45.50
2018-03-15T02:55:57.692Z,45.21
2018-03-15T02:56:36.673Z,44.93
2018-03-15T02:57:57.669Z,44.84
2018-03-15T02:58:36.654Z,45.21
2018-03-15T02:59:36.631Z,45.40
2018-03-15T03:00:57.628Z,45.88
2018-03-15T03:01:36.601Z,46.16
2018-03-15T03:02:57.596Z,45.88
2018-03-15T03:03:36.578Z,46.45
2018-03-15T03:04:36.562Z,46.54
2018-03-15T03:05:57.548Z,46.35
2018-03-15T03:06:36.528Z,46.35
2018-03-15T03:07:57.522Z,46.35
2018-03-15T03:08:36.514Z,46.07
2018-03-15T03:09:36.484Z,46.45
2018-03-15T03:10:57.471Z,46.73
2018-03-15T03:11:36.457Z,46.64
2018-03-15T03:12:57.449Z,46.26
2018-03-15T03:13:36.429Z,46.45
2018-03-15T03:14:36.416Z,46.54
2018-03-15T03:15:57.407Z,47.02
2018-03-15T03:16:36.393Z,46.45
2018-03-15T03:17:57.376Z,45.88
2018-03-15T03:18:36.358Z,46.54
2018-03-15T03:19:36.348Z,46.83
2018-03-15T03:20:57.336Z,47.39
2018-03-15T03:21:36.313Z,47.49
2018-03-15T03:22:57.299Z,46.92
2018-03-15T03:23:36.287Z,46.73
2018-03-15T03:24:36.271Z,46.07
2018-03-15T03:25:57.266Z,46.73
2018-03-15T03:26:36.244Z,46.73
2018-03-15T03:27:57.236Z,46.54
2018-03-15T03:28:36.218Z,46.64
2018-03-15T03:29:36.200Z,47.20
2018-03-15T03:30:57.189Z,47.58
2018-03-15T03:31:36.177Z,47.77
2018-03-15T03:32:57.162Z,48.44
2018-03-15T03:33:36.147Z,49.19
2018-03-15T03:34:36.125Z,49.19
2018-03-15T03:35:57.119Z,49.38
2018-03-15T03:36:36.099Z,49.01
2018-03-15T03:37:57.089Z,48.91
2018-03-15T03:38:36.073Z,48.82
2018-03-15T03:39:36.059Z,48.25
2018-03-15T03:40:57.041Z,47.96
2018-03-15T03:41:36.032Z,48.25
2018-03-15T03:42:57.022Z,47.30
2018-03-15T03:43:35.998Z,46.64
2018-03-15T03:44:35.993Z,45.97
2018-03-15T03:45:56.977Z,45.97
2018-03-15T03:46:35.956Z,46.54
2018-03-15T03:47:56.950Z,47.02
2018-03-15T03:48:35.928Z,47.30
2018-03-15T03:49:35.914Z,47.11
2018-03-15T03:50:56.933Z,47.28
2018-03-15T03:51:35.887Z,47.56
2018-03-15T03:52:56.875Z,47.47
2018-03-15T03:53:35.858Z,47.56
2018-03-15T03:54:35.840Z,47.75
2018-03-15T03:55:56.838Z,47.75
2018-03-15T03:56:35.815Z,47.37
2018-03-15T03:57:56.805Z,47.18
2018-03-15T03:58:35.781Z,47.56
2018-03-15T03:59:35.771Z,48.03
2018-03-15T04:00:56.758Z,47.85
2018-03-15T04:01:35.734Z,47.28
2018-03-15T04:02:56.729Z,47.37
2018-03-15T04:03:35.713Z,47.37
2018-03-15T04:04:35.699Z,46.61
2018-03-15T04:05:56.684Z,47.28
2018-03-15T04:06:35.671Z,47.66
2018-03-15T04:07:56.660Z,47.47
2018-03-15T04:08:35.639Z,47.37
2018-03-15T04:09:35.622Z,47.39
2018-03-15T04:10:56.612Z,47.56
2018-03-15T04:11:35.600Z,47.39
2018-03-15T04:12:56.589Z,47.18
2018-03-15T04:13:35.563Z,47.39
2018-03-15T04:14:35.551Z,47.30
2018-03-15T04:15:56.539Z,47.75
2018-03-15T04:16:35.522Z,48.13
2018-03-15T04:17:56.515Z,48.25
2018-03-15T04:18:35.491Z,48.79
2018-03-15T04:19:35.479Z,48.98
2018-03-15T04:20:56.471Z,48.22
2018-03-15T04:21:35.454Z,47.96
2018-03-15T04:22:56.442Z,48.32
2018-03-15T04:23:35.424Z,48.51
2018-03-15T04:24:35.410Z,48.70
2018-03-15T04:25:56.397Z,48.70
2018-03-15T04:26:35.382Z,48.89
2018-03-15T04:27:56.365Z,48.79
2018-03-15T04:28:35.353Z,48.41
2018-03-15T04:29:35.336Z,48.32
2018-03-15T04:30:56.332Z,48.44
2018-03-15T04:31:35.308Z,48.06
2018-03-15T04:32:56.298Z,47.85
2018-03-15T04:33:35.280Z,47.85
2018-03-15T04:34:35.262Z,47.39
2018-03-15T04:35:56.254Z,47.87
2018-03-15T04:36:35.234Z,48.60
2018-03-15T04:37:56.229Z,49.27
2018-03-15T04:38:35.205Z,49.17
2018-03-15T04:39:35.189Z,48.03
2018-03-15T04:40:56.182Z,47.56
2018-03-15T04:41:35.174Z,47.66
2018-03-15T04:42:56.149Z,48.13
2018-03-15T04:43:35.133Z,48.32
2018-03-15T04:44:35.117Z,47.28
2018-03-15T04:45:56.104Z,47.18
2018-03-15T04:46:35.094Z,47.18
2018-03-15T04:47:56.084Z,47.37
2018-03-15T04:48:35.063Z,47.56
2018-03-15T04:49:35.048Z,47.47
2018-03-15T04:50:56.040Z,47.75
2018-03-15T04:51:35.028Z,47.87
2018-03-15T04:52:56.014Z,48.06
2018-03-15T04:53:34.991Z,48.34
2018-03-15T04:54:34.977Z,47.94
2018-03-15T04:55:55.963Z,47.68
2018-03-15T04:56:34.947Z,47.28
2018-03-15T04:57:55.973Z,47.11
2018-03-15T04:58:34.945Z,47.09
2018-03-15T04:59:34.907Z,47.30
2018-03-15T05:00:55.894Z,47.68
2018-03-15T05:01:34.870Z,47.39
2018-03-15T05:02:55.860Z,47.58
2018-03-15T05:03:34.845Z,47.77
2018-03-15T05:04:34.829Z,47.77
2018-03-15T05:05:55.816Z,47.87
2018-03-15T05:06:34.800Z,47.49
2018-03-15T05:07:55.792Z,47.77
2018-03-15T05:08:34.771Z,48.63
2018-03-15T05:09:34.762Z,48.44
2018-03-15T05:10:55.750Z,48.06
2018-03-15T05:11:34.732Z,47.68
2018-03-15T05:12:55.722Z,48.15
2018-03-15T05:13:34.700Z,48.25
2018-03-15T05:14:34.682Z,48.82
2018-03-15T05:15:55.678Z,48.25
2018-03-15T05:16:34.658Z,48.15
2018-03-15T05:17:55.644Z,47.87
2018-03-15T05:18:34.629Z,48.06
2018-03-15T05:19:34.615Z,47.30
2018-03-15T05:20:55.603Z,47.39
2018-03-15T05:21:34.592Z,46.92
2018-03-15T05:22:55.572Z,47.39
2018-03-15T05:23:34.553Z,47.87
2018-03-15T05:24:34.541Z,47.96
2018-03-15T05:25:55.530Z,47.87
2018-03-15T05:26:34.513Z,47.68
2018-03-15T05:27:55.504Z,48.44
2018-03-15T05:28:34.482Z,48.25
2018-03-15T05:29:34.467Z,49.01
2018-03-15T05:30:55.471Z,49.01
2018-03-15T05:31:34.437Z,48.34
2018-03-15T05:32:55.431Z,47.77
2018-03-15T05:33:34.412Z,47.68
2018-03-15T05:34:34.400Z,48.54
2018-03-15T05:35:55.387Z,49.48
2018-03-15T05:36:34.364Z,50.24
2018-03-15T05:37:55.358Z,50.34
2018-03-15T05:38:34.338Z,49.57
2018-03-15T05:39:34.328Z,49.76
2018-03-15T05:40:55.312Z,49.38
2018-03-15T05:41:34.298Z,49.86
2018-03-15T05:42:55.285Z,50.43
2018-03-15T05:43:34.261Z,49.57
2018-03-15T05:44:34.249Z,48.91
2018-03-15T05:45:55.239Z,48.44
2018-03-15T05:46:34.223Z,48.44
2018-03-15T05:47:55.211Z,48.63
2018-03-15T05:48:34.191Z,48.15
2018-03-15T05:49:34.182Z,47.68
2018-03-15T05:50:55.170Z,46.54
2018-03-15T05:51:34.150Z,46.54
2018-03-15T05:52:55.144Z,46.54
2018-03-15T05:53:34.124Z,46.83
2018-03-15T05:54:34.108Z,47.20
2018-03-15T05:55:55.108Z,47.39
2018-03-15T05:56:34.080Z,47.58
2018-03-15T05:57:55.104Z,47.11
2018-03-15T05:58:34.050Z,47.20
2018-03-15T05:59:34.034Z,47.11
2018-03-15T06:00:55.025Z,47.30
2018-03-15T06:01:34.006Z,47.68
2018-03-15T06:02:54.994Z,47.58
2018-03-15T06:03:33.984Z,47.68
2018-03-15T06:04:33.966Z,47.58
2018-03-15T06:05:54.952Z,48.06
2018-03-15T06:06:33.933Z,48.34
2018-03-15T06:07:54.923Z,49.10
2018-03-15T06:08:33.907Z,49.19
2018-03-15T06:09:33.895Z,48.06
2018-03-15T06:10:54.877Z,47.58
2018-03-15T06:11:33.862Z,47.39
2018-03-15T06:12:54.853Z,47.39
2018-03-15T06:13:33.833Z,47.20
2018-03-15T06:14:33.817Z,47.58
2018-03-15T06:15:54.807Z,47.77
2018-03-15T06:16:33.783Z,47.58
2018-03-15T06:17:54.781Z,47.77
2018-03-15T06:18:33.765Z,47.87
2018-03-15T06:19:33.746Z,47.77
2018-03-15T06:20:54.731Z,47.96
2018-03-15T06:21:33.716Z,48.25
2018-03-15T06:22:54.709Z,48.63
2018-03-15T06:23:33.690Z,48.25
2018-03-15T06:24:33.682Z,49.01
2018-03-15T06:25:54.662Z,49.01
2018-03-15T06:26:33.648Z,48.63
2018-03-15T06:27:54.636Z,47.87
2018-03-15T06:28:33.623Z,48.25
2018-03-15T06:29:33.598Z,49.48
2018-03-15T06:30:54.592Z,49.76
2018-03-15T06:31:33.574Z,50.05
2018-03-15T06:32:54.558Z,49.22
2018-03-15T06:33:33.549Z,48.84
2018-03-15T06:34:33.530Z,48.46
2018-03-15T06:35:54.531Z,47.99
2018-03-15T06:36:33.502Z,48.18
2018-03-15T06:37:54.488Z,48.84
2018-03-15T06:38:33.469Z,48.65
2018-03-15T06:39:33.455Z,48.94
2018-03-15T06:40:54.453Z,49.32
2018-03-15T06:41:33.429Z,50.17
2018-03-15T06:42:54.419Z,49.69
2018-03-15T06:43:33.404Z,49.22
2018-03-15T06:44:33.390Z,48.36
2018-03-15T06:45:54.382Z,47.80
2018-03-15T06:46:33.358Z,48.18
2018-03-15T06:47:54.348Z,48.84
2018-03-15T06:48:33.331Z,48.65
2018-03-15T06:49:33.317Z,48.36
2018-03-15T06:50:54.306Z,48.65
2018-03-15T06:51:33.288Z,48.75
2018-03-15T06:52:54.282Z,48.27
2018-03-15T06:53:33.262Z,48.84
2018-03-15T06:54:33.258Z,48.75
2018-03-15T06:55:54.233Z,47.82
2018-03-15T06:56:33.217Z,47.71
2018-03-15T06:57:54.205Z,47.34
2018-03-15T06:58:33.192Z,46.69
2018-03-15T06:59:33.172Z,46.78
2018-03-15T07:00:54.163Z,46.40
2018-03-15T07:01:33.144Z,46.69
2018-03-15T07:02:54.137Z,47.25
2018-03-15T07:03:33.118Z,48.39
2018-03-15T07:04:33.105Z,48.30
2018-03-15T07:05:54.096Z,48.86
2018-03-15T07:06:33.078Z,49.05
2018-03-15T07:07:54.063Z,49.91
2018-03-15T07:08:33.047Z,49.53
2018-03-15T07:09:33.036Z,49.05
2018-03-15T07:10:54.029Z,47.92
2018-03-15T07:11:33.009Z,47.44
2018-03-15T07:12:54.004Z,46.78
2018-03-15T07:13:32.983Z,46.69
2018-03-15T07:14:32.972Z,47.25
2018-03-15T07:15:53.961Z,47.47
2018-03-15T07:16:32.954Z,47.66
2018-03-15T07:17:53.928Z,47.94
2018-03-15T07:18:32.911Z,48.03
2018-03-15T07:19:32.899Z,47.28
2018-03-15T07:20:53.889Z,46.42
2018-03-15T07:21:32.864Z,46.42
2018-03-15T07:22:53.855Z,46.61
2018-03-15T07:23:32.840Z,46.51
2018-03-15T07:24:32.828Z,45.95
2018-03-15T07:25:53.828Z,46.42
2018-03-15T07:26:32.803Z,46.23
2018-03-15T07:27:53.794Z,46.14
2018-03-15T07:28:32.776Z,46.23
2018-03-15T07:29:32.766Z,46.42
2018-03-15T07:30:53.750Z,46.70
2018-03-15T07:31:32.732Z,46.61
2018-03-15T07:32:53.722Z,46.51
2018-03-15T07:33:32.704Z,46.61
2018-03-15T07:34:32.690Z,46.70
2018-03-15T07:35:53.683Z,46.73
2018-03-15T07:36:32.669Z,46.42
2018-03-15T07:37:53.655Z,46.35
2018-03-15T07:38:32.639Z,46.23
2018-03-15T07:39:32.626Z,47.20
2018-03-15T07:40:53.622Z,46.92
2018-03-15T07:41:32.600Z,46.16
2018-03-15T07:42:53.583Z,46.35
2018-03-15T07:43:32.585Z,46.06
2018-03-15T07:44:32.560Z,44.83
2018-03-15T07:45:53.543Z,45.31
2018-03-15T07:46:32.532Z,45.40
2018-03-15T07:47:53.523Z,45.78
2018-03-15T07:48:32.503Z,45.21
2018-03-15T07:49:32.491Z,45.40
2018-03-15T07:50:53.494Z,44.83
2018-03-15T07:51:32.468Z,45.40
2018-03-15T07:52:53.454Z,45.21
2018-03-15T07:53:32.443Z,44.64
2018-03-15T07:54:32.426Z,44.73
2018-03-15T07:55:53.418Z,46.06
2018-03-15T07:56:32.401Z,46.54
2018-03-15T07:57:53.386Z,46.06
2018-03-15T07:58:32.372Z,46.25
2018-03-15T07:59:32.359Z,45.78
2018-03-15T08:00:53.355Z,44.64
2018-03-15T08:01:32.329Z,44.83
2018-03-15T08:02:53.324Z,44.26
2018-03-15T08:03:32.306Z,44.35
2018-03-15T08:04:32.292Z,44.26
2018-03-15T08:05:53.285Z,44.26
2018-03-15T08:06:32.273Z,45.21
2018-03-15T08:07:53.259Z,45.02
2018-03-15T08:08:32.242Z,45.31
2018-03-15T08:09:32.232Z,44.93
2018-03-15T08:10:53.221Z,44.07
2018-03-15T08:11:32.245Z,44.47
2018-03-15T08:12:53.193Z,44.09
2018-03-15T08:13:32.175Z,44.38
2018-03-15T08:14:32.210Z,44.28
2018-03-15T08:15:53.161Z,44.19
2018-03-15T08:16:32.141Z,44.28
2018-03-15T08:17:53.129Z,44.19
2018-03-15T08:18:32.115Z,44.47
2018-03-15T08:19:32.101Z,44.19
2018-03-15T08:20:53.093Z,44.76
2018-03-15T08:21:32.072Z,44.97
2018-03-15T08:22:53.062Z,44.78
2018-03-15T08:23:32.044Z,44.21
2018-03-15T08:24:32.036Z,43.73
2018-03-15T08:25:53.027Z,43.07
2018-03-15T08:26:32.012Z,42.79
2018-03-15T08:27:52.998Z,43.35
2018-03-15T08:28:31.984Z,43.73
2018-03-15T08:29:31.973Z,44.12
2018-03-15T08:30:52.969Z,43.54
2018-03-15T08:31:31.945Z,42.90
2018-03-15T08:32:52.939Z,43.09
2018-03-15T08:33:31.923Z,42.99
2018-03-15T08:34:31.905Z,42.71
2018-03-15T08:35:52.901Z,42.71
2018-03-15T08:36:31.889Z,42.71
2018-03-15T08:37:52.873Z,41.69
2018-03-15T08:38:31.870Z,41.30
2018-03-15T08:39:31.846Z,40.16
2018-03-15T08:40:52.836Z,39.97
2018-03-15T08:41:31.823Z,40.35
2018-03-15T08:42:52.812Z,40.64
2018-03-15T08:43:31.796Z,41.40
2018-03-15T08:44:31.786Z,41.33
2018-03-15T08:45:52.778Z,41.42
2018-03-15T08:46:31.760Z,41.89
2018-03-15T08:47:52.752Z,41.42
2018-03-15T08:48:31.734Z,41.52
2018-03-15T08:49:31.725Z,41.23
2018-03-15T08:50:52.714Z,40.77
2018-03-15T08:51:31.699Z,40.66
2018-03-15T08:52:52.693Z,39.73
2018-03-15T08:53:31.677Z,39.63
2018-03-15T08:54:31.669Z,40.11
2018-03-15T08:55:52.663Z,40.48
2018-03-15T08:56:31.689Z,40.77
2018-03-15T08:57:52.633Z,40.20
2018-03-15T08:58:31.621Z,40.20
2018-03-15T08:59:31.611Z,39.84
2018-03-15T09:00:52.605Z,39.75
2018-03-15T09:01:31.586Z,38.12
2018-03-15T09:02:52.578Z,37.27
2018-03-15T09:03:31.564Z,37.17
2018-03-15T09:04:31.556Z,36.41
2018-03-15T09:05:52.605Z,35.46
2018-03-15T09:06:31.530Z,35.08
2018-03-15T09:07:52.526Z,35.55
2018-03-15T09:08:31.506Z,35.55
2018-03-15T09:09:31.499Z,36.51
2018-03-15T09:10:52.494Z,37.17
2018-03-15T09:11:31.477Z,37.55
2018-03-15T09:12:52.471Z,37.93
2018-03-15T09:13:31.452Z,36.69
2018-03-15T09:14:31.440Z,35.84
2018-03-15T09:15:52.438Z,35.27
2018-03-15T09:16:31.418Z,34.50
2018-03-15T09:17:52.417Z,35.17
2018-03-15T09:18:31.403Z,35.86
2018-03-15T09:19:31.389Z,34.52
2018-03-15T09:20:52.385Z,34.14
2018-03-15T09:21:31.409Z,33.95
2018-03-15T09:22:52.361Z,34.44
2018-03-15T09:23:31.345Z,35.11
2018-03-15T09:24:31.334Z,35.78
2018-03-15T09:25:52.335Z,35.89
2018-03-15T09:26:31.314Z,35.03
2018-03-15T09:27:52.310Z,35.22
2018-03-15T09:28:31.294Z,35.39
2018-03-15T09:29:31.280Z,34.92
2018-03-15T09:30:52.276Z,33.97
2018-03-15T09:31:31.260Z,33.39
2018-03-15T09:32:52.264Z,33.01
2018-03-15T09:33:31.243Z,34.06
2018-03-15T09:34:31.287Z,34.73
2018-03-15T09:35:52.229Z,35.30
2018-03-15T09:36:31.205Z,35.32
2018-03-15T09:37:52.208Z,35.51
2018-03-15T09:38:31.193Z,35.41
2018-03-15T09:39:31.181Z,34.63
2018-03-15T09:40:52.173Z,34.63
2018-03-15T09:41:31.161Z,34.54
2018-03-15T09:42:52.154Z,34.63
2018-03-15T09:43:31.141Z,34.63
2018-03-15T09:44:31.162Z,35.49
2018-03-15T09:45:52.130Z,35.38
2018-03-15T09:46:31.112Z,35.76
2018-03-15T09:47:52.107Z,36.24
2018-03-15T09:48:31.088Z,36.14
2018-03-15T09:49:31.081Z,36.33
2018-03-15T09:50:52.081Z,36.43
2018-03-15T09:51:31.059Z,36.52
2018-03-15T09:52:52.055Z,35.76
2018-03-15T09:53:31.042Z,36.14
2018-03-15T09:54:31.033Z,36.24
2018-03-15T09:55:52.031Z,36.62
2018-03-15T09:56:31.013Z,36.43
2018-03-15T09:57:52.002Z,36.69
2018-03-15T09:58:30.988Z,35.76
2018-03-15T09:59:30.978Z,34.90
2018-03-15T10:00:51.976Z,34.61
2018-03-15T10:01:30.950Z,35.86
2018-03-15T10:02:51.954Z,36.81
2018-03-15T10:03:30.940Z,37.00
2018-03-15T10:04:30.928Z,37.38
2018-03-15T10:05:51.946Z,36.90
2018-03-15T10:06:30.913Z,36.71
2018-03-15T10:07:51.906Z,36.62
2018-03-15T10:08:30.884Z,36.81
2018-03-15T10:09:30.881Z,36.52
2018-03-15T10:10:51.871Z,36.62
2018-03-15T10:11:30.859Z,36.81
2018-03-15T10:12:51.848Z,36.98
2018-03-15T10:13:30.832Z,37.00
2018-03-15T10:14:30.825Z,37.08
2018-03-15T10:15:51.818Z,37.17
2018-03-15T10:16:30.804Z,37.17
2018-03-15T10:17:51.805Z,37.36
2018-03-15T10:18:30.781Z,37.17
2018-03-15T10:19:30.777Z,37.17
2018-03-15T10:20:51.771Z,36.98
2018-03-15T10:21:30.747Z,36.79
2018-03-15T10:22:51.747Z,37.27
2018-03-15T10:23:30.737Z,37.46
2018-03-15T10:24:30.719Z,38.22
2018-03-15T10:25:51.710Z,37.93
2018-03-15T10:26:30.699Z,38.41
2018-03-15T10:27:51.694Z,38.41
2018-03-15T10:28:30.676Z,38.41
2018-03-15T10:29:30.672Z,38.51
2018-03-15T10:30:51.663Z,38.58
2018-03-15T10:31:30.647Z,39.06
2018-03-15T10:32:51.641Z,38.20
2018-03-15T10:33:30.625Z,38.01
2018-03-15T10:34:30.617Z,38.49
2018-03-15T10:35:51.615Z,38.49
2018-03-15T10:36:30.601Z,38.39
2018-03-15T10:37:51.586Z,38.58
2018-03-15T10:38:30.570Z,38.49
2018-03-15T10:39:30.561Z,39.06
2018-03-15T10:40:51.558Z,38.29
2018-03-15T10:41:30.536Z,38.87
2018-03-15T10:42:51.542Z,38.58
2018-03-15T10:43:30.519Z,38.78
2018-03-15T10:44:30.504Z,38.87
2018-03-15T10:45:51.507Z,38.39
2018-03-15T10:46:30.491Z,38.20
2018-03-15T10:47:51.483Z,38.28
2018-03-15T10:48:30.467Z,38.95
2018-03-15T10:49:30.506Z,39.14
2018-03-15T10:50:51.444Z,38.66
2018-03-15T10:51:30.431Z,39.04
2018-03-15T10:52:51.427Z,39.23
2018-03-15T10:53:30.411Z,39.90
2018-03-15T10:54:30.402Z,40.47
2018-03-15T10:55:51.396Z,40.37
2018-03-15T10:56:30.376Z,40.75
2018-03-15T10:57:51.403Z,40.85
2018-03-15T10:58:30.355Z,39.99
2018-03-15T10:59:30.349Z,39.70
2018-03-15T11:00:51.344Z,40.09
2018-03-15T11:01:30.321Z,40.47
2018-03-15T11:02:51.323Z,40.75
2018-03-15T11:03:30.302Z,40.75
2018-03-15T11:04:30.284Z,40.09
2018-03-15T11:05:51.279Z,40.28
2018-03-15T11:06:30.264Z,40.18
2018-03-15T11:07:51.263Z,39.51
2018-03-15T11:08:30.243Z,39.90
2018-03-15T11:09:30.233Z,40.37
2018-03-15T11:10:51.238Z,40.47
2018-03-15T11:11:30.213Z,40.18
2018-03-15T11:12:51.252Z,40.28
2018-03-15T11:13:30.212Z,39.90
2018-03-15T11:14:30.178Z,40.09
2018-03-15T11:15:51.174Z,39.90
2018-03-15T11:16:30.156Z,40.09
2018-03-15T11:17:51.146Z,39.90
2018-03-15T11:18:30.132Z,39.90
2018-03-15T11:19:30.120Z,40.18
2018-03-15T11:20:51.116Z,39.90
2018-03-15T11:21:30.098Z,39.99
2018-03-15T11:22:51.094Z,40.18
2018-03-15T11:23:30.076Z,40.37
2018-03-15T11:24:30.070Z,40.28
2018-03-15T11:25:51.055Z,39.80
2018-03-15T11:26:30.042Z,40.47
2018-03-15T11:27:51.037Z,40.56
2018-03-15T11:28:30.021Z,40.47
2018-03-15T11:29:30.011Z,39.80
2018-03-15T11:30:51.000Z,39.70
2018-03-15T11:31:29.986Z,38.85
2018-03-15T11:32:50.978Z,39.42
2018-03-15T11:33:29.966Z,40.28
2018-03-15T11:34:29.954Z,40.28
2018-03-15T11:35:50.951Z,40.58
2018-03-15T11:36:29.930Z,39.70
2018-03-15T11:37:50.925Z,39.32
2018-03-15T11:38:29.911Z,38.95
2018-03-15T11:39:29.894Z,39.53
2018-03-15T11:40:50.887Z,39.53
2018-03-15T11:41:29.875Z,38.95
2018-03-15T11:42:50.867Z,39.04
2018-03-15T11:43:29.853Z,38.96
2018-03-15T11:44:29.850Z,39.25
2018-03-15T11:45:50.829Z,39.25
2018-03-15T11:46:29.819Z,39.82
2018-03-15T11:47:50.812Z,38.96
2018-03-15T11:48:29.797Z,38.78
2018-03-15T11:49:29.788Z,39.06
2018-03-15T11:50:50.777Z,39.25
2018-03-15T11:51:29.760Z,38.96
2018-03-15T11:52:50.761Z,39.15
2018-03-15T11:53:29.739Z,39.63
2018-03-15T11:54:29.731Z,39.25
2018-03-15T11:55:50.721Z,39.15
2018-03-15T11:56:29.707Z,38.78
2018-03-15T11:57:50.705Z,38.20
2018-03-15T11:58:29.687Z,38.29
2018-03-15T11:59:29.680Z,38.87
2018-03-15T12:00:50.672Z,39.34
2018-03-15T12:01:29.652Z,38.58
2018-03-15T12:02:50.644Z,38.60
2018-03-15T12:03:29.633Z,38.89
2018-03-15T12:04:29.622Z,38.98
2018-03-15T12:05:50.615Z,37.36
2018-03-15T12:06:29.595Z,37.17
2018-03-15T12:07:50.595Z,37.46
2018-03-15T12:08:29.575Z,37.84
2018-03-15T12:09:29.565Z,37.74
2018-03-15T12:10:50.553Z,37.46
2018-03-15T12:11:29.536Z,37.46
2018-03-15T12:12:50.539Z,37.55
2018-03-15T12:13:29.524Z,37.84
2018-03-15T12:14:29.516Z,37.46
2018-03-15T12:15:50.504Z,37.08
2018-03-15T12:16:29.488Z,36.79
2018-03-15T12:17:50.484Z,36.88
2018-03-15T12:18:29.466Z,36.88
2018-03-15T12:19:29.458Z,37.29
2018-03-15T12:20:50.452Z,37.48
2018-03-15T12:21:29.431Z,37.00
2018-03-15T12:22:50.427Z,36.69
2018-03-15T12:23:29.413Z,37.00
2018-03-15T12:24:29.405Z,37.38
2018-03-15T12:25:50.400Z,37.57
2018-03-15T12:26:29.382Z,37.29
2018-03-15T12:27:50.383Z,37.38
2018-03-15T12:28:29.364Z,37.10
2018-03-15T12:29:29.347Z,36.71
2018-03-15T12:30:50.343Z,36.52
2018-03-15T12:31:29.327Z,37.10
2018-03-15T12:32:50.321Z,37.10
2018-03-15T12:33:29.305Z,36.90
2018-03-15T12:34:29.295Z,36.81
2018-03-15T12:35:50.293Z,36.81
2018-03-15T12:36:29.273Z,36.71
2018-03-15T12:37:50.274Z,36.71
2018-03-15T12:38:29.258Z,36.90
2018-03-15T12:39:29.246Z,36.81
2018-03-15T12:40:50.243Z,36.25
2018-03-15T12:41:29.231Z,36.25
2018-03-15T12:42:50.227Z,35.49
2018-03-15T12:43:29.204Z,35.30
2018-03-15T12:44:29.189Z,35.21
2018-03-15T12:45:50.221Z,35.68
2018-03-15T12:46:29.168Z,36.24
2018-03-15T12:47:50.172Z,36.33
2018-03-15T12:48:29.152Z,36.43
2018-03-15T12:49:29.141Z,37.00
2018-03-15T12:50:50.135Z,36.81
2018-03-15T12:51:29.125Z,37.19
2018-03-15T12:52:50.117Z,37.29